createdAt,value
2019-04-07T00:02:31.464Z,9
2019-04-07T00:07:59.679Z,8.9
2019-04-07T00:13:29.341Z,8.9
2019-04-07T00:18:57.804Z,8.8
2019-04-07T00:24:25.126Z,8.8
2019-04-07T00:29:54.284Z,8.7
2019-04-07T00:35:28.261Z,8.7
2019-04-07T00:40:51.368Z,8.7
2019-04-07T00:46:19.292Z,8.6
2019-04-07T00:51:51.249Z,8.6
2019-04-07T00:57:16.384Z,8.5
2019-04-07T01:02:44.468Z,8.4
2019-04-07T01:08:13.898Z,8.4
2019-04-07T01:13:41.630Z,8.4
2019-04-07T01:19:10.025Z,8.4
2019-04-07T01:24:37.960Z,8.3
2019-04-07T01:30:06.402Z,8.2
2019-04-07T01:35:44.781Z,8.2
2019-04-07T01:41:04.052Z,8.2
2019-04-07T01:46:32.688Z,8.3
2019-04-07T01:52:01.855Z,8.3
2019-04-07T01:57:30.204Z,8.3
2019-04-07T02:03:02.169Z,8.2
2019-04-07T02:08:27.302Z,8.2
2019-04-07T02:13:55.804Z,8.2
2019-04-07T02:19:23.080Z,8.1
2019-04-07T02:24:51.068Z,8
2019-04-07T02:30:20.103Z,7.9
2019-04-07T02:35:46.614Z,7.9
2019-04-07T02:41:18.402Z,7.9
2019-04-07T02:46:44.100Z,7.9
2019-04-07T02:52:12.263Z,7.9
2019-04-07T02:57:41.002Z,7.9
2019-04-07T03:03:08.884Z,7.9
2019-04-07T03:08:37.792Z,7.8
2019-04-07T03:14:07.090Z,7.8
2019-04-07T03:19:33.852Z,7.8
2019-04-07T03:25:01.482Z,7.7
2019-04-07T03:30:32.669Z,7.7
2019-04-07T03:36:01.612Z,7.6
2019-04-07T03:41:26.619Z,7.6
2019-04-07T03:46:55.097Z,7.6
2019-04-07T03:52:22.370Z,7.6
2019-04-07T03:57:50.649Z,7.6
2019-04-07T04:03:17.376Z,7.5
2019-04-07T04:08:45.996Z,7.5
2019-04-07T04:14:15.172Z,7.5
2019-04-07T04:19:42.670Z,7.4
2019-04-07T04:25:10.655Z,7.4
2019-04-07T04:30:38.917Z,7.3
2019-04-07T04:36:06.343Z,7.3
2019-04-07T04:41:36.235Z,7.2
2019-04-07T04:47:02.936Z,7.2
2019-04-07T04:52:31.744Z,7.1
2019-04-07T04:58:00.223Z,7.1
2019-04-07T05:03:27.232Z,7.1
2019-04-07T05:08:55.286Z,7.2
2019-04-07T05:14:22.967Z,7.2
2019-04-07T05:19:50.965Z,7.2
2019-04-07T05:25:18.436Z,7.3
2019-04-07T05:30:47.003Z,7.3
2019-04-07T05:36:16.809Z,7.4
2019-04-07T05:41:43.846Z,7.4
2019-04-07T05:47:12.983Z,7.5
2019-04-07T05:52:41.017Z,7.5
2019-04-07T05:58:08.441Z,7.6
2019-04-07T06:03:37.972Z,7.6
2019-04-07T06:09:04.028Z,7.7
2019-04-07T06:14:32.397Z,7.8
2019-04-07T06:20:05.647Z,7.8
2019-04-07T06:25:33.018Z,7.9
2019-04-07T06:31:00.129Z,7.9
2019-04-07T06:36:27.280Z,8
2019-04-07T06:41:55.054Z,8.1
2019-04-07T06:47:22.815Z,8.2
2019-04-07T06:52:50.936Z,8.2
2019-04-07T06:58:19.713Z,8.3
2019-04-07T07:03:48.567Z,8.4
2019-04-07T07:09:16.537Z,8.5
2019-04-07T07:14:45.664Z,8.7
2019-04-07T07:20:12.498Z,8.8
2019-04-07T07:25:40.879Z,8.9
2019-04-07T07:31:09.105Z,9
2019-04-07T07:36:37.077Z,9.1
2019-04-07T07:47:37.221Z,9.3
2019-04-07T07:53:02.564Z,9.4
2019-04-07T07:58:32.750Z,9.5
2019-04-07T08:04:00.774Z,9.6
2019-04-07T08:09:28.306Z,9.8
2019-04-07T08:14:58.304Z,9.9
2019-04-07T08:20:25.002Z,10.1
2019-04-07T08:25:54.914Z,10.2
2019-04-07T08:31:21.520Z,10.4
2019-04-07T08:36:49.496Z,10.5
2019-04-07T08:42:19.484Z,10.7
2019-04-07T08:47:48.817Z,10.9
2019-04-07T08:53:16.988Z,11
2019-04-07T08:58:43.832Z,11.2
2019-04-07T09:04:14.979Z,11.4
2019-04-07T09:09:46.493Z,11.5
2019-04-07T09:15:10.970Z,11.7
2019-04-07T09:20:40.215Z,11.8
2019-04-07T09:26:09.430Z,11.9
2019-04-07T09:31:35.028Z,12.1
2019-04-07T09:37:03.293Z,12.2
2019-04-07T09:42:31.160Z,12.3
2019-04-07T09:48:00.607Z,12.4
2019-04-07T09:53:28.600Z,12.5
2019-04-07T09:58:56.790Z,12.6
2019-04-07T10:04:25.767Z,12.7
2019-04-07T10:10:05.927Z,12.9
2019-04-07T10:15:24.530Z,13
2019-04-07T10:20:52.887Z,13.1
2019-04-07T10:26:21.412Z,13.2
2019-04-07T10:31:49.589Z,13.3
2019-04-07T10:37:17.872Z,13.3
2019-04-07T10:42:47.040Z,13.4
2019-04-07T10:48:15.516Z,13.5
2019-04-07T10:53:43.483Z,13.6
2019-04-07T10:59:13.645Z,13.7
2019-04-07T11:04:41.076Z,13.8
2019-04-07T11:10:09.330Z,13.9
2019-04-07T11:15:39.234Z,14
2019-04-07T11:21:06.929Z,14.1
2019-04-07T11:26:36.438Z,14.2
2019-04-07T11:32:04.420Z,14.3
2019-04-07T11:37:33.772Z,14.4
2019-04-07T11:43:02.281Z,14.5
2019-04-07T11:48:30.659Z,14.6
2019-04-07T11:53:59.925Z,14.7
2019-04-07T11:59:28.516Z,14.8
2019-04-07T12:04:57.738Z,14.9
2019-04-07T12:10:26.967Z,14.9
2019-04-07T12:15:56.675Z,15.1
2019-04-07T12:21:25.737Z,15.2
2019-04-07T12:26:53.779Z,15.3
2019-04-07T12:32:21.643Z,15.4
2019-04-07T12:37:51.107Z,15.6
2019-04-07T12:43:20.614Z,15.7
2019-04-07T12:48:48.962Z,15.8
2019-04-07T12:54:18.975Z,15.9
2019-04-07T12:59:50.977Z,16
2019-04-07T13:05:16.554Z,16.1
2019-04-07T13:10:45.990Z,16.2
2019-04-07T13:16:14.583Z,16.2
2019-04-07T13:21:45.824Z,16.3
2019-04-07T13:27:13.980Z,16.3
2019-04-07T13:32:43.784Z,16.4
2019-04-07T13:38:10.881Z,16.4
2019-04-07T13:43:39.250Z,16.5
2019-04-07T13:49:09.652Z,16.5
2019-04-07T13:54:38.315Z,16.6
2019-04-07T14:00:06.875Z,16.6
2019-04-07T14:11:08.293Z,16.7
2019-04-07T14:16:35.423Z,16.8
2019-04-07T14:22:04.418Z,16.8
2019-04-07T14:27:42.632Z,16.8
2019-04-07T14:33:06.476Z,16.7
2019-04-07T14:38:31.977Z,16.7
2019-04-07T14:44:00.652Z,16.7
2019-04-07T14:49:30.792Z,16.8
2019-04-07T14:55:02.953Z,16.8
2019-04-07T15:00:29.186Z,16.7
2019-04-07T15:05:58.175Z,16.7
2019-04-07T15:11:26.977Z,16.7
2019-04-07T15:16:55.731Z,16.7
2019-04-07T15:22:27.184Z,16.7
2019-04-07T15:33:23.083Z,16.6
2019-04-07T15:38:55.378Z,16.5
2019-04-07T15:44:22.760Z,16.4
2019-04-07T15:49:51.436Z,16.4
2019-04-07T15:55:21.762Z,16.3
2019-04-07T16:00:51.574Z,16.2
2019-04-07T16:06:20.631Z,16.2
2019-04-07T16:11:49.528Z,16.1
2019-04-07T16:17:18.933Z,16
2019-04-07T16:22:48.165Z,16
2019-04-07T16:28:16.141Z,15.9
2019-04-07T16:33:43.833Z,15.8
2019-04-07T16:39:13.611Z,15.7
2019-04-07T16:44:44.451Z,15.6
2019-04-07T16:50:20.267Z,15.5
2019-04-07T16:55:40.191Z,15.3
2019-04-07T17:01:09.099Z,15.2
2019-04-07T17:06:39.018Z,15.1
2019-04-07T17:12:09.328Z,15
2019-04-07T17:17:36.802Z,14.9
2019-04-07T17:23:03.835Z,14.8
2019-04-07T17:28:32.462Z,14.6
2019-04-07T17:34:00.677Z,14.5
2019-04-07T17:39:28.428Z,14.4
2019-04-07T17:44:58.069Z,14.3
2019-04-07T17:50:29.334Z,14.2
2019-04-07T17:55:57.160Z,14.1
2019-04-07T18:01:25.022Z,14
2019-04-07T18:06:52.870Z,13.9
2019-04-07T18:12:21.845Z,13.8
2019-04-07T18:23:21.362Z,13.5
2019-04-07T18:28:52.165Z,13.4
2019-04-07T18:34:17.341Z,13.3
2019-04-07T18:39:52.232Z,13.2
2019-04-07T18:45:15.751Z,13.1
2019-04-07T18:50:48.073Z,13
2019-04-07T18:56:11.874Z,13
2019-04-07T19:01:41.245Z,12.9
2019-04-07T19:07:09.732Z,12.8
2019-04-07T19:12:38.575Z,12.7
2019-04-07T19:18:07.851Z,12.7
2019-04-07T19:23:35.785Z,12.6
2019-04-07T19:29:04.188Z,12.5
2019-04-07T19:34:32.965Z,12.4
2019-04-07T21:51:21.419Z,10.7
2019-04-07T21:56:49.335Z,10.7
2019-04-07T22:02:17.457Z,10.7
2019-04-07T22:07:46.337Z,10.7
2019-04-07T22:13:15.457Z,10.7
2019-04-07T22:18:45.041Z,10.6
2019-04-07T22:24:13.411Z,10.5
2019-04-07T22:29:41.599Z,10.5
2019-04-07T22:35:09.277Z,10.5
2019-04-07T22:40:39.158Z,10.5
2019-04-07T22:46:16.224Z,10.4
2019-04-07T22:51:35.068Z,10.4
2019-04-07T22:57:02.935Z,10.3
2019-04-07T23:02:31.977Z,10.3
2019-04-07T23:07:59.989Z,10.3
2019-04-07T23:13:28.017Z,10.2
2019-04-07T23:18:55.791Z,10
2019-04-07T23:24:24.752Z,10
2019-04-07T23:29:52.757Z,10
2019-04-07T23:35:20.567Z,10
2019-04-07T23:40:49.327Z,9.9
2019-04-07T23:46:22.758Z,9.9
2019-04-07T23:51:44.203Z,9.9
2019-04-07T23:57:12.175Z,9.9
